Time;durP1;ratioP1;P1;durP2;ratioP2;P2;SDS_P1;SDS_P2;PMS_P1;PMS_P2;Temp;Humidity;BMP_temperature;BMP_pressure;BME280_temperature;BME280_humidity;BME280_pressure;Samples;Min_cycle;Max_cycle;Signal;HPM_P1;HPM_P2
2021/10/09 00:01:41;;;;;;;26.20;17.83;;;;;;;7.97;100.00;102505.81;6147371;23;20096;-87
2021/10/09 00:04:08;;;;;;;31.55;18.20;;;;;;;7.93;100.00;102489.19;6169982;23;20028;-90
2021/10/09 00:06:35;;;;;;;29.70;17.70;;;;;;;7.92;100.00;102494.34;6172954;23;20052;-87
2021/10/09 00:09:04;;;;;;;26.20;17.67;;;;;;;7.87;100.00;102494.19;6146484;23;20068;-91
2021/10/09 00:11:37;;;;;;;29.02;17.63;;;;;;;7.84;100.00;102493.25;6146744;23;20017;-91
2021/10/09 00:14:11;;;;;;;27.75;18.38;;;;;;;7.82;100.00;102500.13;6151034;23;20029;-92
2021/10/09 00:16:42;;;;;;;32.78;20.27;;;;;;;7.79;100.00;102495.69;6178006;23;20056;-93
2021/10/09 00:19:10;;;;;;;28.55;17.45;;;;;;;7.78;100.00;102497.41;6182118;23;20618;-87
2021/10/09 00:21:43;;;;;;;28.27;18.17;;;;;;;7.78;100.00;102499.13;6175945;23;20028;-88
2021/10/09 00:24:12;;;;;;;33.47;20.33;;;;;;;7.73;100.00;102490.25;6172935;23;20503;-90
2021/10/09 00:26:41;;;;;;;30.55;18.92;;;;;;;7.71;100.00;102494.56;6170670;23;20028;-91
2021/10/09 00:29:13;;;;;;;27.35;17.40;;;;;;;7.66;100.00;102491.78;6173541;23;20021;-91
2021/10/09 00:31:41;;;;;;;29.75;18.88;;;;;;;7.60;100.00;102500.31;6155501;23;20027;-85
2021/10/09 00:34:15;;;;;;;28.02;17.45;;;;;;;7.55;100.00;102499.25;6151690;23;20440;-89
2021/10/09 00:36:41;;;;;;;27.08;17.88;;;;;;;7.50;100.00;102497.34;6155215;23;20021;-91
2021/10/09 00:39:08;;;;;;;31.75;19.50;;;;;;;7.48;100.00;102499.88;6171297;23;20043;-87
2021/10/09 00:41:35;;;;;;;26.33;18.00;;;;;;;7.48;100.00;102499.88;6172113;23;20511;-89
2021/10/09 00:44:18;;;;;;;26.88;16.95;;;;;;;7.44;100.00;102500.63;6149296;23;20020;-90
2021/10/09 00:46:48;;;;;;;24.98;16.75;;;;;;;7.40;100.00;102503.97;6147979;23;20033;-88
2021/10/09 00:49:16;;;;;;;29.52;17.65;;;;;;;7.37;100.00;102501.25;6172472;23;20020;-91
2021/10/09 00:51:45;;;;;;;33.65;17.73;;;;;;;7.35;100.00;102502.91;6144334;23;20024;-91
2021/10/09 00:54:19;;;;;;;22.90;16.20;;;;;;;7.32;100.00;102503.69;6173160;23;20617;-91
2021/10/09 00:56:48;;;;;;;23.60;16.17;;;;;;;7.26;100.00;102504.38;6145321;23;20028;-91
2021/10/09 00:59:15;;;;;;;27.13;16.48;;;;;;;7.21;100.00;102505.03;6173026;23;20032;-88
2021/10/09 01:01:43;;;;;;;26.88;16.73;;;;;;;7.17;100.00;102501.47;6170867;23;20112;-90
2021/10/09 01:04:11;;;;;;;27.40;18.33;;;;;;;7.16;100.00;102504.88;6169578;23;20057;-89
2021/10/09 01:06:38;;;;;;;24.15;16.30;;;;;;;7.10;100.00;102504.66;6145481;23;20045;-88
2021/10/09 01:09:05;;;;;;;28.40;17.20;;;;;;;7.09;100.00;102508.09;6145708;23;20017;-88
2021/10/09 01:11:32;;;;;;;25.75;15.93;;;;;;;7.06;100.00;102503.66;6146302;23;20036;-91
2021/10/09 01:13:58;;;;;;;24.13;15.95;;;;;;;7.04;100.00;102496.63;6149902;23;20017;-87
2021/10/09 01:16:29;;;;;;;28.88;15.95;;;;;;;6.99;100.00;102496.47;6147234;23;20337;-88
2021/10/09 01:18:58;;;;;;;24.55;16.75;;;;;;;6.95;100.00;102495.47;6150175;23;20708;-88
2021/10/09 01:21:27;;;;;;;27.42;17.88;;;;;;;6.94;100.00;102493.69;6169392;23;20021;-90
2021/10/09 01:23:54;;;;;;;22.60;14.70;;;;;;;6.91;100.00;102485.78;6174486;23;20017;-92
2021/10/09 01:26:21;;;;;;;29.17;16.40;;;;;;;6.92;100.00;102484.97;6146338;23;20025;-90
2021/10/09 01:28:51;;;;;;;26.60;16.88;;;;;;;6.92;100.00;102484.06;6149966;23;20084;-86
2021/10/09 01:31:21;;;;;;;28.75;17.10;;;;;;;6.90;100.00;102491.81;6120879;23;20068;-87
2021/10/09 01:33:48;;;;;;;28.50;16.83;;;;;;;6.87;100.00;102489.13;6146519;23;20024;-87
2021/10/09 01:36:14;;;;;;;26.25;16.17;;;;;;;6.87;100.00;102485.63;6172961;23;20017;-87
2021/10/09 01:38:53;;;;;;;28.30;18.23;;;;;;;6.85;100.00;102480.34;6170709;23;20028;-92
2021/10/09 01:41:19;;;;;;;29.50;15.77;;;;;;;6.84;100.00;102482.91;6147265;23;20029;-90
2021/10/09 01:43:46;;;;;;;25.52;15.60;;;;;;;6.80;100.00;102489.72;6145140;23;20052;-88
2021/10/09 01:46:13;;;;;;;25.38;15.98;;;;;;;6.75;100.00;102486.06;6172213;23;20101;-87
2021/10/09 01:48:41;;;;;;;26.33;15.85;;;;;;;6.71;100.00;102490.25;6148457;23;20116;-91
2021/10/09 01:51:12;;;;;;;26.60;16.33;;;;;;;6.66;100.00;102489.22;6167496;23;20047;-90
2021/10/09 01:53:40;;;;;;;32.22;17.95;;;;;;;6.64;100.00;102483.06;6171942;23;20009;-87
2021/10/09 01:56:07;;;;;;;22.73;14.82;;;;;;;6.61;100.00;102477.78;6143372;23;20021;-88
2021/10/09 01:58:36;;;;;;;26.83;16.55;;;;;;;6.57;100.00;102478.47;6146824;23;20029;-88
2021/10/09 02:01:03;;;;;;;24.02;15.70;;;;;;;6.56;100.00;102469.78;6142893;23;20021;-89
2021/10/09 02:03:32;;;;;;;29.90;17.48;;;;;;;6.52;100.00;102478.31;6149261;23;20048;-90
2021/10/09 02:05:58;;;;;;;29.55;17.05;;;;;;;6.48;100.00;102470.31;6150049;23;20040;-88
2021/10/09 02:08:27;;;;;;;30.92;17.55;;;;;;;6.48;100.00;102475.53;6147727;23;20032;-87
2021/10/09 02:10:57;;;;;;;28.20;17.00;;;;;;;6.42;100.00;102466.66;6172344;23;20079;-89
2021/10/09 02:13:27;;;;;;;27.17;15.00;;;;;;;6.39;100.00;102466.56;6170653;23;20025;-87
2021/10/09 02:15:59;;;;;;;25.48;14.50;;;;;;;6.37;100.00;102470.81;6149172;23;20084;-89
2021/10/09 02:24:21;;;;;;;27.17;16.25;;;;;;;6.31;100.00;102468.00;6141874;23;20083;-89
2021/10/09 02:26:48;;;;;;;30.90;17.40;;;;;;;6.31;100.00;102470.59;6149617;23;20424;-87
2021/10/09 02:29:15;;;;;;;29.38;16.30;;;;;;;6.31;100.00;102460.19;6148470;23;20024;-89
2021/10/09 02:31:42;;;;;;;22.88;15.18;;;;;;;6.34;100.00;102462.03;6119351;23;20036;-92
2021/10/09 02:34:12;;;;;;;24.58;15.85;;;;;;;6.35;100.00;102458.56;6173668;23;20013;-87
2021/10/09 02:36:39;;;;;;;25.83;16.02;;;;;;;6.31;100.00;102462.78;6146674;23;20021;-90
2021/10/09 02:39:06;;;;;;;28.88;17.17;;;;;;;6.28;100.00;102473.06;6172250;23;20048;-90
2021/10/09 02:41:33;;;;;;;24.15;15.25;;;;;;;6.23;100.00;102461.59;6172284;23;20044;-89
2021/10/09 02:44:00;;;;;;;21.60;14.13;;;;;;;6.20;100.00;102464.09;6171624;23;20013;-91
2021/10/09 02:46:27;;;;;;;22.23;14.57;;;;;;;6.14;100.00;102459.56;6173370;23;20579;-91
2021/10/09 02:48:54;;;;;;;24.02;15.52;;;;;;;6.11;100.00;102469.81;6147235;23;20052;-88
2021/10/09 02:51:21;;;;;;;27.75;16.75;;;;;;;6.08;100.00;102480.09;6147939;23;20083;-93
2021/10/09 02:53:47;;;;;;;26.98;14.35;;;;;;;6.07;100.00;102467.94;6174891;23;20064;-88
2021/10/09 02:56:14;;;;;;;26.52;15.13;;;;;;;6.05;100.00;102469.56;6170464;23;20017;-92
2021/10/09 02:58:40;;;;;;;31.58;15.65;;;;;;;6.03;100.00;102469.50;6174871;23;20100;-86
2021/10/09 03:01:07;;;;;;;27.42;15.40;;;;;;;6.02;100.00;102466.84;6169770;23;20443;-88
2021/10/09 03:03:34;;;;;;;28.52;15.65;;;;;;;5.97;100.00;102470.13;6149936;23;20104;-86
2021/10/09 03:06:00;;;;;;;26.17;15.20;;;;;;;5.94;100.00;102462.22;6146942;23;20029;-88
2021/10/09 03:08:29;;;;;;;25.83;14.55;;;;;;;5.91;100.00;102466.41;6174419;23;20315;-87
2021/10/09 03:10:56;;;;;;;28.98;16.13;;;;;;;5.89;100.00;102468.97;6170859;23;20075;-89
2021/10/09 03:13:23;;;;;;;30.15;16.67;;;;;;;5.88;100.00;102468.88;6170096;23;20044;-92
2021/10/09 03:15:50;;;;;;;26.88;14.88;;;;;;;5.87;100.00;102472.31;6148000;23;20021;-87
2021/10/09 03:18:16;;;;;;;25.08;15.20;;;;;;;5.87;100.00;102469.72;6149306;23;20128;-87
2021/10/09 03:20:44;;;;;;;27.08;14.00;;;;;;;5.84;100.00;102469.56;6172314;23;20047;-89
2021/10/09 03:23:11;;;;;;;28.48;15.88;;;;;;;5.82;100.00;102466.94;6149855;23;20439;-86
2021/10/09 03:25:38;;;;;;;27.65;16.60;;;;;;;5.80;100.00;102463.38;6170338;23;20025;-88
2021/10/09 03:28:05;;;;;;;25.67;13.90;;;;;;;5.75;100.00;102467.50;6146398;23;20320;-87
2021/10/09 03:30:31;;;;;;;26.23;14.93;;;;;;;5.73;100.00;102470.03;6168930;23;20021;-92
2021/10/09 03:33:00;;;;;;;24.20;15.43;;;;;;;5.68;100.00;102478.47;6148348;23;20047;-87
2021/10/09 03:35:30;;;;;;;26.15;15.35;;;;;;;5.62;100.00;102480.00;6146604;23;20273;-90
2021/10/09 03:37:57;;;;;;;29.60;14.50;;;;;;;5.61;100.00;102472.16;6124037;23;20021;-86
2021/10/09 03:40:25;;;;;;;24.92;15.43;;;;;;;5.59;100.00;102482.50;6146400;23;20080;-89
2021/10/09 03:42:54;;;;;;;22.08;14.55;;;;;;;5.57;100.00;102475.44;6172382;23;20075;-90
2021/10/09 03:45:26;;;;;;;29.67;15.25;;;;;;;5.54;100.00;102476.22;6176427;23;20337;-91
2021/10/09 03:48:04;;;;;;;30.42;16.02;;;;;;;5.52;100.00;102477.84;6179626;23;20032;-88
2021/10/09 03:53:15;;;;;;;23.30;14.95;;;;;;;5.48;100.00;102470.75;6150113;23;20017;-88
2021/10/09 03:55:41;;;;;;;23.88;14.18;;;;;;;5.46;100.00;102477.59;6148771;23;20021;-90
2021/10/09 03:58:08;;;;;;;28.38;15.18;;;;;;;5.45;100.00;102473.25;6173243;23;20021;-90
2021/10/09 04:00:35;;;;;;;29.17;13.70;;;;;;;5.44;100.00;102474.06;6143917;23;20449;-90
2021/10/09 04:03:02;;;;;;;26.70;15.10;;;;;;;5.44;100.00;102474.94;6174750;23;20351;-89
2021/10/09 04:05:29;;;;;;;26.45;15.23;;;;;;;5.45;100.00;102481.03;6151399;23;20049;-87
2021/10/09 04:07:56;;;;;;;24.17;14.27;;;;;;;5.43;100.00;102480.06;6158337;23;20470;-89
2021/10/09 04:10:23;;;;;;;29.23;16.13;;;;;;;5.44;100.00;102477.53;6180300;23;20013;-92
2021/10/09 04:12:50;;;;;;;26.52;14.43;;;;;;;5.41;100.00;102473.91;6146912;23;20089;-86
2021/10/09 04:15:16;;;;;;;27.92;15.40;;;;;;;5.39;100.00;102472.97;6147723;23;20079;-90
2021/10/09 04:17:43;;;;;;;21.25;12.93;;;;;;;5.33;100.00;102472.72;6148527;23;20383;-90
2021/10/09 04:20:10;;;;;;;26.73;16.40;;;;;;;5.29;100.00;102472.59;6145168;23;20352;-89
2021/10/09 04:22:40;;;;;;;24.73;14.95;;;;;;;5.26;100.00;102471.56;6171408;23;20451;-90
2021/10/09 04:25:11;;;;;;;20.63;13.20;;;;;;;5.23;100.00;102471.44;6174431;23;20028;-92
2021/10/09 04:27:39;;;;;;;27.73;14.40;;;;;;;5.22;100.00;102480.06;6151719;23;20032;-88
2021/10/09 04:30:10;;;;;;;28.27;15.40;;;;;;;5.18;100.00;102485.94;6147705;23;20036;-90
2021/10/09 04:32:37;;;;;;;25.13;14.13;;;;;;;5.14;100.00;102482.31;6161106;23;20351;-88
2021/10/09 04:35:04;;;;;;;24.10;14.45;;;;;;;5.13;100.00;102481.41;6171098;23;20021;-91
2021/10/09 04:37:31;;;;;;;22.10;14.10;;;;;;;5.12;100.00;102478.75;6172695;23;20071;-87
2021/10/09 04:39:58;;;;;;;24.85;13.85;;;;;;;5.09;100.00;102481.25;6146462;23;20369;-86
2021/10/09 04:42:25;;;;;;;23.98;13.85;;;;;;;5.08;100.00;102482.94;6169730;23;20040;-87
2021/10/09 04:44:54;;;;;;;24.88;13.48;;;;;;;5.06;100.00;102473.31;6152939;23;20017;-88
2021/10/09 04:47:23;;;;;;;28.92;15.43;;;;;;;5.04;100.00;102473.25;6197013;23;20036;-86
2021/10/09 04:49:50;;;;;;;24.13;13.88;;;;;;;5.03;100.00;102468.00;6147715;23;20029;-87
2021/10/09 04:52:16;;;;;;;31.02;15.13;;;;;;;5.02;100.00;102474.00;6170986;23;20351;-86
2021/10/09 04:54:43;;;;;;;20.08;13.73;;;;;;;5.01;100.00;102483.50;6172700;23;20108;-86
2021/10/09 04:57:10;;;;;;;31.85;14.32;;;;;;;5.03;100.00;102475.78;6145906;23;20020;-90
2021/10/09 04:59:36;;;;;;;26.17;15.27;;;;;;;5.00;100.00;102471.34;6142946;23;20414;-86
2021/10/09 05:02:03;;;;;;;24.08;14.27;;;;;;;4.99;100.00;102476.47;6142881;23;20093;-86
2021/10/09 05:04:30;;;;;;;28.27;14.27;;;;;;;4.97;100.00;102484.19;6169726;23;20460;-86
2021/10/09 05:06:59;;;;;;;27.83;14.20;;;;;;;4.93;100.00;102490.94;6171637;23;20111;-89
2021/10/09 05:09:26;;;;;;;24.77;15.07;;;;;;;4.94;100.00;102477.16;6148288;23;20089;-88
2021/10/09 05:11:53;;;;;;;22.27;13.48;;;;;;;4.93;100.00;102482.28;6172150;23;20036;-92
2021/10/09 05:14:19;;;;;;;24.17;13.18;;;;;;;4.92;100.00;102483.97;6153353;23;20024;-88
2021/10/09 05:16:46;;;;;;;26.48;13.20;;;;;;;4.90;100.00;102482.13;6168705;23;20025;-89
2021/10/09 05:19:13;;;;;;;24.55;12.82;;;;;;;4.89;100.00;102486.44;6182751;23;20013;-88
2021/10/09 05:21:39;;;;;;;25.05;13.35;;;;;;;4.90;100.00;102492.50;6153724;23;20029;-87
2021/10/09 05:24:07;;;;;;;19.33;11.23;;;;;;;4.87;100.00;102492.41;6155753;23;20047;-90
2021/10/09 05:26:42;;;;;;;20.70;14.48;;;;;;;4.81;100.00;102485.25;6158379;23;20025;-84
2021/10/09 05:29:14;;;;;;;26.52;14.52;;;;;;;4.79;100.00;102502.44;6153172;23;20478;-85
2021/10/09 05:31:50;;;;;;;23.67;12.77;;;;;;;4.72;100.00;102502.97;6178234;23;20048;-89
2021/10/09 05:37:08;;;;;;;21.17;12.50;;;;;;;4.68;100.00;102512.34;6179176;23;20135;-85
2021/10/09 05:40:06;;;;;;;26.73;14.02;;;;;;;4.65;100.00;102512.19;6167435;23;20029;-87
2021/10/09 05:42:33;;;;;;;21.55;12.65;;;;;;;4.68;100.00;102508.84;6175593;23;20803;-89
2021/10/09 05:44:59;;;;;;;23.67;13.13;;;;;;;4.69;100.00;102514.09;6176933;23;20020;-87
2021/10/09 05:47:29;;;;;;;27.17;15.77;;;;;;;4.68;100.00;102517.53;6146598;23;20021;-88
2021/10/09 05:49:56;;;;;;;23.38;13.25;;;;;;;4.68;100.00;102514.03;6126379;23;20029;-87
2021/10/09 05:52:30;;;;;;;24.08;12.85;;;;;;;4.68;100.00;102519.22;6149323;23;20472;-90
2021/10/09 05:55:07;;;;;;;24.40;12.93;;;;;;;4.65;100.00;102517.38;6155092;23;20048;-86
2021/10/09 05:57:37;;;;;;;26.02;12.68;;;;;;;4.68;100.00;102519.22;6152721;23;20428;-86
2021/10/09 06:00:18;;;;;;;22.60;12.45;;;;;;;4.69;100.00;102527.06;6172553;23;20021;-91
2021/10/09 06:49:51;;;;;;;28.98;13.75;;;;;;;5.46;100.00;102543.44;6173515;23;20020;-89
2021/10/09 07:00:31;;;;;;;16.42;10.07;;;;;;;7.38;100.00;102542.09;6163038;23;20048;-91
2021/10/09 07:02:58;;;;;;;19.52;10.63;;;;;;;7.78;100.00;102539.13;6183388;23;20021;-86
2021/10/09 07:05:25;;;;;;;20.27;11.50;;;;;;;8.06;96.60;102546.97;6153823;23;20033;-87
2021/10/09 07:08:12;;;;;;;16.45;10.88;;;;;;;8.34;96.82;102540.88;6177351;23;20017;-90
2021/10/09 07:10:46;;;;;;;13.65;9.93;;;;;;;8.73;95.28;102544.66;6178900;23;20017;-87
2021/10/09 07:13:15;;;;;;;17.90;10.50;;;;;;;9.00;92.11;102539.34;6151804;23;20071;-86
2021/10/09 07:15:42;;;;;;;16.52;10.43;;;;;;;9.24;91.17;102536.53;6174795;23;20383;-86
2021/10/09 07:18:10;;;;;;;20.67;9.38;;;;;;;9.40;88.98;102543.03;6150771;23;20021;-86
2021/10/09 07:20:38;;;;;;;18.23;10.63;;;;;;;9.48;85.35;102540.63;6147775;23;20029;-91
2021/10/09 07:23:07;;;;;;;18.25;10.02;;;;;;;9.77;86.49;102543.97;6150416;23;20032;-88
2021/10/09 07:28:20;;;;;;;22.15;10.23;;;;;;;10.25;79.38;102547.72;6180368;23;20017;-86
2021/10/09 07:30:47;;;;;;;18.65;10.10;;;;;;;10.27;79.26;102538.19;6156092;23;20044;-85
2021/10/09 07:33:16;;;;;;;19.33;11.60;;;;;;;10.19;77.78;102547.56;6178840;23;20021;-88
2021/10/09 07:35:44;;;;;;;13.88;10.20;;;;;;;9.59;78.23;102552.25;6180060;23;20056;-90
2021/10/09 07:38:11;;;;;;;18.75;11.02;;;;;;;9.07;79.70;102546.53;6151747;23;20506;-90
2021/10/09 07:40:38;;;;;;;20.33;11.63;;;;;;;8.64;81.63;102562.69;6124923;23;20780;-84
2021/10/09 07:43:05;;;;;;;18.35;10.27;;;;;;;8.23;82.82;102561.41;6173795;23;20452;-90
2021/10/09 07:45:32;;;;;;;18.48;10.45;;;;;;;7.93;84.11;102558.72;6146634;23;20104;-90
2021/10/09 07:48:01;;;;;;;16.60;10.55;;;;;;;7.63;84.04;102564.69;6150377;23;20036;-88
2021/10/09 07:50:28;;;;;;;19.30;11.90;;;;;;;7.39;84.75;102562.09;6171653;23;20044;-86
2021/10/09 07:52:54;;;;;;;24.92;12.60;;;;;;;7.20;85.71;102564.06;6202582;23;20064;-91
2021/10/09 07:55:21;;;;;;;22.60;12.60;;;;;;;7.14;86.93;102562.97;6174483;23;20104;-86
2021/10/09 07:57:48;;;;;;;22.33;11.20;;;;;;;7.08;86.70;102568.84;6156772;23;20041;-90
2021/10/09 08:00:15;;;;;;;21.10;11.65;;;;;;;7.02;86.79;102573.81;6190175;23;20024;-91
2021/10/09 08:02:52;;;;;;;22.15;12.05;;;;;;;7.01;87.34;102570.31;6183567;23;20029;-86
2021/10/09 08:05:23;;;;;;;21.38;11.20;;;;;;;7.03;87.43;102575.59;6163044;23;20025;-90
2021/10/09 08:07:52;;;;;;;20.83;12.48;;;;;;;7.02;87.24;102564.28;6178613;23;20027;-84
2021/10/09 08:10:18;;;;;;;16.35;11.25;;;;;;;7.05;87.27;102576.53;6152204;23;20024;-86
2021/10/09 08:12:45;;;;;;;32.28;13.85;;;;;;;7.02;87.34;102571.22;6176026;23;20047;-90
2021/10/09 08:15:12;;;;;;;22.08;11.93;;;;;;;7.04;87.48;102577.34;6125490;23;20051;-87
2021/10/09 08:17:39;;;;;;;23.30;12.88;;;;;;;7.06;87.23;102573.97;6154600;23;20021;-86
2021/10/09 08:20:15;;;;;;;20.35;12.45;;;;;;;7.10;87.33;102578.50;6153908;23;20088;-86
2021/10/09 08:22:56;;;;;;;28.15;14.00;;;;;;;7.15;87.05;102575.16;6155928;23;20440;-86
2021/10/09 08:36:32;;;;;;;22.58;12.82;;;;;;;7.46;87.28;102574.53;6155039;23;20017;-87
2021/10/09 08:38:59;;;;;;;19.73;12.73;;;;;;;7.54;86.59;102580.00;6151231;23;20427;-87
2021/10/09 08:41:25;;;;;;;20.45;13.10;;;;;;;7.60;86.18;102583.72;6150121;23;20024;-88
2021/10/09 08:43:53;;;;;;;21.63;12.10;;;;;;;7.66;86.04;102582.16;6170621;23;20048;-86
2021/10/09 08:46:23;;;;;;;23.95;13.80;;;;;;;7.73;85.79;102581.50;6172363;23;20025;-87
2021/10/09 08:48:53;;;;;;;15.98;11.65;;;;;;;7.75;85.91;102585.94;6172555;23;20036;-89
2021/10/09 08:51:28;;;;;;;26.70;13.40;;;;;;;7.80;86.12;102585.22;6172622;23;20407;-88
2021/10/09 08:54:05;;;;;;;27.25;12.63;;;;;;;7.85;86.19;102584.53;6149792;23;20032;-87
2021/10/09 08:56:43;;;;;;;29.35;13.48;;;;;;;7.95;85.59;102584.00;6174058;23;20025;-89
2021/10/09 08:59:23;;;;;;;21.73;14.30;;;;;;;8.02;85.68;102579.00;6150872;23;20021;-90
2021/10/09 09:02:15;;;;;;;31.40;14.23;;;;;;;8.11;84.73;102585.41;6144727;23;20503;-92
2021/10/09 09:07:46;;;;;;;22.98;13.82;;;;;;;8.23;84.88;102576.19;6165534;23;20083;-87
2021/10/09 09:27:12;;;;;;;28.42;14.82;;;;;;;8.84;82.14;102576.31;6150373;23;20017;-86
2021/10/09 09:40:42;;;;;;;25.65;13.50;;;;;;;9.36;80.23;102567.34;6173349;23;20013;-86
2021/10/09 09:43:13;;;;;;;25.48;14.98;;;;;;;9.50;79.30;102562.44;6146406;23;20263;-85
2021/10/09 09:45:43;;;;;;;27.88;13.82;;;;;;;9.63;77.98;102554.94;6171501;23;20401;-89
2021/10/09 09:48:10;;;;;;;27.15;15.57;;;;;;;9.72;77.47;102552.56;6145241;23;20047;-86
2021/10/09 09:50:38;;;;;;;24.77;15.23;;;;;;;9.86;77.77;102550.28;6172945;23;20020;-86
2021/10/09 09:53:06;;;;;;;22.98;14.18;;;;;;;9.97;75.89;102550.53;6147765;23;20013;-89
2021/10/09 09:55:34;;;;;;;20.42;14.02;;;;;;;10.08;76.49;102551.69;6150789;23;20021;-89
2021/10/09 09:58:02;;;;;;;23.05;14.27;;;;;;;10.18;76.22;102552.78;6174554;23;20736;-93
2021/10/09 10:00:34;;;;;;;21.02;13.80;;;;;;;10.33;76.22;102557.50;6146700;23;20081;-89
2021/10/09 10:03:05;;;;;;;21.65;13.82;;;;;;;10.49;74.32;102554.38;6124801;23;20048;-88
2021/10/09 10:05:32;;;;;;;23.92;13.57;;;;;;;10.64;74.00;102556.47;6157838;23;20052;-86
2021/10/09 10:08:03;;;;;;;21.88;12.57;;;;;;;10.85;74.83;102550.78;6182751;23;20028;-86
2021/10/09 10:10:29;;;;;;;19.40;12.50;;;;;;;11.14;73.54;102555.72;6158822;23;20059;-86
2021/10/09 10:12:59;;;;;;;28.60;13.63;;;;;;;11.44;70.58;102562.38;6157730;23;20017;-86
2021/10/09 10:15:33;;;;;;;19.73;13.23;;;;;;;11.62;69.54;102548.72;6157687;23;20099;-86
2021/10/09 10:18:00;;;;;;;21.88;13.52;;;;;;;11.87;68.90;102552.63;6155430;23;20031;-85
2021/10/09 10:20:51;;;;;;;17.38;12.75;;;;;;;12.06;66.02;102551.22;6158601;23;20458;-85
2021/10/09 10:23:51;;;;;;;18.55;12.23;;;;;;;12.03;66.15;102550.28;6178042;23;20084;-86
2021/10/09 10:26:20;;;;;;;24.65;13.13;;;;;;;12.00;67.66;102550.25;6143588;23;20048;-84
2021/10/09 10:29:07;;;;;;;19.55;12.77;;;;;;;11.95;65.78;102544.91;6180634;23;20176;-86
2021/10/09 10:31:34;;;;;;;22.80;12.93;;;;;;;11.84;66.34;102536.84;6152424;23;20100;-88
2021/10/09 10:34:24;;;;;;;19.98;11.38;;;;;;;11.89;66.42;102539.56;6184299;23;20025;-87
2021/10/09 10:36:51;;;;;;;20.55;12.88;;;;;;;12.27;64.25;102538.38;6186293;23;20013;-84
2021/10/09 10:39:21;;;;;;;19.40;10.98;;;;;;;13.10;60.26;102542.03;6160074;23;20025;-85
2021/10/09 10:42:04;;;;;;;16.85;11.10;;;;;;;14.20;58.08;102535.13;6186088;23;20025;-84
2021/10/09 10:45:12;;;;;;;19.27;11.43;;;;;;;15.29;49.95;102525.88;6163771;23;20037;-84
2021/10/09 10:48:01;;;;;;;17.70;11.35;;;;;;;16.19;47.52;102525.00;6176141;23;20036;-89
2021/10/09 10:50:45;;;;;;;21.02;11.18;;;;;;;17.11;48.10;102520.22;6177188;23;20025;-83
2021/10/09 10:53:17;;;;;;;13.60;10.18;;;;;;;18.30;47.45;102520.97;6182614;23;20700;-87
2021/10/09 10:56:13;;;;;;;14.07;10.55;;;;;;;19.50;44.97;102510.47;6180879;23;20021;-84
2021/10/09 10:58:40;;;;;;;15.13;9.90;;;;;;;20.50;43.70;102518.38;6152363;23;20063;-88
2021/10/09 11:01:24;;;;;;;15.35;10.65;;;;;;;20.47;40.31;102518.47;6157578;23;20021;-85
2021/10/09 11:03:54;;;;;;;15.35;9.38;;;;;;;19.43;44.35;102520.31;6160905;23;20017;-84
2021/10/09 11:06:29;;;;;;;15.60;10.52;;;;;;;18.24;46.02;102515.72;6184993;23;20028;-84
2021/10/09 11:08:56;;;;;;;18.67;10.80;;;;;;;18.84;43.48;102515.84;6161272;23;20021;-83
2021/10/09 11:11:42;;;;;;;16.20;9.75;;;;;;;20.04;40.04;102514.88;6160797;23;20051;-85
2021/10/09 11:14:09;;;;;;;15.95;10.32;;;;;;;21.18;38.28;102516.91;6185835;23;20443;-83
2021/10/09 11:16:37;;;;;;;19.25;9.32;;;;;;;22.12;36.79;102505.63;6159621;23;20020;-83
2021/10/09 11:19:06;;;;;;;17.85;9.05;;;;;;;23.02;35.51;102503.00;6158986;23;20323;-83
2021/10/09 11:21:55;;;;;;;14.07;9.15;;;;;;;24.12;33.72;102510.91;6151530;23;20530;-85
2021/10/09 11:24:22;;;;;;;16.17;8.95;;;;;;;24.79;32.11;102495.03;6178758;23;20068;-87
2021/10/09 11:26:57;;;;;;;13.63;9.55;;;;;;;25.37;30.00;102498.03;6185966;23;20076;-84
2021/10/09 11:30:04;;;;;;;12.38;8.45;;;;;;;26.15;30.43;102490.19;6162074;23;20077;-83
2021/10/09 11:32:33;;;;;;;12.32;8.27;;;;;;;26.61;28.38;102494.31;6093504;23;20557;-89
2021/10/09 11:35:01;;;;;;;13.32;8.50;;;;;;;26.79;28.21;102482.75;6133660;23;20089;-88
2021/10/09 11:37:28;;;;;;;18.08;8.15;;;;;;;26.71;28.28;102493.81;6128534;23;20017;-87
2021/10/09 11:39:59;;;;;;;9.75;7.40;;;;;;;27.02;27.34;102488.78;6128476;23;20088;-91
2021/10/09 11:42:28;;;;;;;11.43;8.35;;;;;;;27.60;27.76;102486.78;6109292;23;20531;-93
2021/10/09 11:45:07;;;;;;;9.80;6.95;;;;;;;28.20;26.18;102480.94;6130195;23;20400;-85
2021/10/09 11:56:14;;;;;;;11.15;7.35;;;;;;;27.76;24.48;102476.13;6138463;23;20025;-96
2021/10/09 11:58:58;;;;;;;10.10;7.70;;;;;;;27.55;23.31;102479.84;6105582;23;20429;-92
2021/10/09 12:01:37;;;;;;;8.27;7.18;;;;;;;27.52;23.62;102474.63;6155603;23;20033;-85
2021/10/09 12:04:23;;;;;;;11.23;6.65;;;;;;;27.63;23.14;102478.56;6123691;23;20027;-85
2021/10/09 12:07:01;;;;;;;8.93;6.45;;;;;;;27.97;23.90;102484.84;6100375;23;20100;-85
2021/10/09 12:09:42;;;;;;;14.07;6.45;;;;;;;28.74;22.83;102474.41;6123968;23;20072;-85
2021/10/09 12:12:22;;;;;;;9.93;6.00;;;;;;;29.51;21.79;102465.34;6123989;23;20021;-91
2021/10/09 12:14:52;;;;;;;10.02;6.25;;;;;;;29.58;21.61;102468.56;6099342;23;20021;-85
2021/10/09 12:17:23;;;;;;;9.13;5.97;;;;;;;29.65;19.46;102477.13;6124487;23;20036;-85
2021/10/09 12:20:02;;;;;;;10.77;6.07;;;;;;;29.61;20.41;102462.09;6124715;23;20017;-90
2021/10/09 12:22:41;;;;;;;8.40;6.10;;;;;;;29.31;19.31;102465.72;6123926;23;20020;-87
2021/10/09 12:32:20;;;;;;;8.48;5.60;;;;;;;28.58;21.49;102466.25;6137624;23;20036;-87
2021/10/09 12:34:48;;;;;;;9.15;6.50;;;;;;;28.60;20.84;102459.84;6185851;23;20428;-85
2021/10/09 12:37:55;;;;;;;6.35;5.75;;;;;;;28.71;19.05;102462.81;6162374;23;20048;-84
2021/10/09 12:47:43;;;;;;;10.52;6.82;;;;;;;27.73;21.65;102445.72;6184412;23;20017;-84
2021/10/09 12:50:30;;;;;;;14.15;7.30;;;;;;;27.51;20.91;102439.75;6160965;23;20056;-84
2021/10/09 12:53:02;;;;;;;10.82;6.40;;;;;;;27.44;22.01;102441.84;6160940;23;20021;-86
2021/10/09 12:55:47;;;;;;;9.63;6.82;;;;;;;27.67;22.30;102435.28;6181166;23;20430;-90
2021/10/09 12:58:14;;;;;;;10.00;6.35;;;;;;;28.01;22.27;102435.28;6176962;23;20436;-85
2021/10/09 13:00:41;;;;;;;8.38;6.47;;;;;;;26.93;22.69;102439.03;6179298;23;20126;-87
2021/10/09 13:03:09;;;;;;;8.43;5.97;;;;;;;24.69;25.17;102446.28;6180441;23;20024;-86
2021/10/09 13:05:43;;;;;;;14.30;5.95;;;;;;;22.32;27.57;102441.06;6186053;23;20048;-84
2021/10/09 13:08:10;;;;;;;9.43;6.45;;;;;;;20.63;29.30;102442.69;6159953;23;20024;-85
2021/10/09 13:10:46;;;;;;;11.85;6.22;;;;;;;19.25;30.88;102452.44;6185783;23;20070;-83
2021/10/09 13:13:31;;;;;;;9.23;5.93;;;;;;;17.90;32.88;102440.13;6183978;23;20127;-86
2021/10/09 13:15:59;;;;;;;9.95;6.07;;;;;;;17.58;33.32;102441.31;6143523;23;20072;-84
2021/10/09 13:22:06;;;;;;;8.23;5.82;;;;;;;18.76;31.49;102431.97;6185451;23;20155;-94
2021/10/09 13:24:33;;;;;;;8.10;6.07;;;;;;;19.93;29.60;102430.03;6192641;23;20017;-84
2021/10/09 13:27:17;;;;;;;9.57;5.70;;;;;;;21.56;27.44;102426.31;6167454;23;20104;-84
2021/10/09 13:29:46;;;;;;;11.95;5.22;;;;;;;22.80;25.71;102427.13;6162993;23;20325;-85
2021/10/09 13:32:26;;;;;;;6.40;4.60;;;;;;;23.65;24.85;102420.72;6154568;23;20076;-87
2021/10/09 13:34:53;;;;;;;11.07;4.78;;;;;;;24.40;24.14;102422.38;6151437;23;20070;-96
2021/10/09 13:37:21;;;;;;;12.80;5.00;;;;;;;24.75;23.88;102420.13;6151898;23;20187;-86
2021/10/09 13:39:52;;;;;;;8.27;5.47;;;;;;;25.59;23.34;102414.84;6178752;23;20135;-89
2021/10/09 13:42:19;;;;;;;7.35;4.70;;;;;;;25.83;22.57;102416.50;6179377;23;20033;-85
2021/10/09 13:44:46;;;;;;;5.70;4.50;;;;;;;26.31;22.73;102407.13;6152635;23;20483;-87
2021/10/09 13:47:13;;;;;;;9.20;5.30;;;;;;;26.63;21.48;102409.19;6178835;23;20450;-86